Time;durP1;ratioP1;P1;durP2;ratioP2;P2;SDS_P1;SDS_P2;PMS_P1;PMS_P2;Temp;Humidity;BMP_temperature;BMP_pressure;BME280_temperature;BME280_humidity;BME280_pressure;Samples;Min_cycle;Max_cycle;Signal;HPM_P1;HPM_P2
2022/04/05 00:00:37;;;;;;;4.63;1.57;;;;;;;;;;4958163;28;20209;-71
2022/04/05 00:03:05;;;;;;;6.77;2.07;;;;;;;;;;4973274;28;20668;-71
2022/04/05 00:05:32;;;;;;;5.00;1.80;;;;;;;;;;4973554;28;20206;-71
2022/04/05 00:08:01;;;;;;;0.43;0.43;;;;;;;;;;4962383;28;20261;-72
2022/04/05 00:10:29;;;;;;;12.13;2.07;;;;;;;;;;4953235;28;20241;-71
2022/04/05 00:12:58;;;;;;;4.03;1.13;;;;;;;;;;4953950;28;20612;-72
2022/04/05 00:15:25;;;;;;;1.30;1.20;;;;;;;;;;4952671;28;20206;-72
2022/04/05 00:17:53;;;;;;;10.33;3.33;;;;;;;;;;4953702;28;20558;-72
2022/04/05 00:20:20;;;;;;;5.23;1.97;;;;;;;;;;4953373;28;20293;-72
2022/04/05 00:22:47;;;;;;;1.53;1.43;;;;;;;;;;4960982;28;20207;-72
2022/04/05 00:25:16;;;;;;;10.27;2.30;;;;;;;;;;4972873;28;20232;-72
2022/04/05 00:27:45;;;;;;;6.30;1.73;;;;;;;;;;4972606;28;20664;-71
2022/04/05 00:30:13;;;;;;;3.90;2.43;;;;;;;;;;4956369;28;20225;-71
2022/04/05 00:32:41;;;;;;;2.00;0.90;;;;;;;;;;4953635;28;20239;-71
2022/04/05 00:35:09;;;;;;;3.20;1.77;;;;;;;;;;4953913;28;20206;-72
2022/04/05 00:37:37;;;;;;;0.90;0.73;;;;;;;;;;4955334;28;20215;-71
2022/04/05 00:40:05;;;;;;;1.70;1.60;;;;;;;;;;4950661;28;20732;-71
2022/04/05 00:42:36;;;;;;;2.80;2.10;;;;;;;;;;4956014;28;20205;-71
2022/04/05 00:45:03;;;;;;;4.93;1.93;;;;;;;;;;4953387;28;20258;-71
2022/04/05 00:47:32;;;;;;;6.73;3.80;;;;;;;;;;4972959;28;20198;-71
2022/04/05 00:49:59;;;;;;;4.53;2.17;;;;;;;;;;4953661;28;20238;-71
2022/04/05 00:52:27;;;;;;;7.50;2.07;;;;;;;;;;4953455;28;20703;-72
2022/04/05 00:54:56;;;;;;;6.60;1.93;;;;;;;;;;4953447;28;20205;-71
2022/04/05 00:57:24;;;;;;;6.23;2.00;;;;;;;;;;4953139;28;20682;-72
2022/04/05 00:59:55;;;;;;;1.37;1.10;;;;;;;;;;4950896;28;20215;-72
2022/04/05 01:02:25;;;;;;;3.80;1.67;;;;;;;;;;4934351;29;20214;-71
2022/04/05 01:04:52;;;;;;;3.30;1.47;;;;;;;;;;4934283;29;20223;-71
2022/04/05 01:07:22;;;;;;;3.27;1.73;;;;;;;;;;4933995;29;20330;-72
2022/04/05 01:09:53;;;;;;;24.63;4.20;;;;;;;;;;4940661;28;20207;-72
2022/04/05 01:12:21;;;;;;;2.17;1.57;;;;;;;;;;4952293;28;20234;-72
2022/04/05 01:14:49;;;;;;;3.33;2.43;;;;;;;;;;4953228;28;20576;-71
2022/04/05 01:17:18;;;;;;;2.47;1.77;;;;;;;;;;4953206;28;20205;-71
2022/04/05 01:19:47;;;;;;;2.43;2.13;;;;;;;;;;4952030;28;20206;-71
2022/04/05 01:22:14;;;;;;;0.83;0.83;;;;;;;;;;4953132;28;20704;-71
2022/04/05 01:24:43;;;;;;;0.70;0.70;;;;;;;;;;4961468;28;20202;-71
2022/04/05 01:27:16;;;;;;;0.87;0.83;;;;;;;;;;4972674;28;20201;-72
2022/04/05 01:29:44;;;;;;;4.27;1.63;;;;;;;;;;4958675;28;20207;-72
2022/04/05 01:32:11;;;;;;;0.47;0.47;;;;;;;;;;4952702;28;20331;-71
2022/04/05 01:34:39;;;;;;;10.33;2.17;;;;;;;;;;4957188;28;20202;-71
2022/04/05 01:37:08;;;;;;;3.80;1.37;;;;;;;;;;4951428;28;20263;-73
2022/04/05 01:39:37;;;;;;;4.37;2.70;;;;;;;;;;4955299;28;20199;-71
2022/04/05 01:42:07;;;;;;;3.10;1.23;;;;;;;;;;4960682;28;20624;-71
2022/04/05 01:44:35;;;;;;;0.87;0.87;;;;;;;;;;4953208;28;20569;-71
2022/04/05 01:47:05;;;;;;;1.27;1.03;;;;;;;;;;4965835;28;20202;-71
2022/04/05 01:49:32;;;;;;;1.57;1.20;;;;;;;;;;4970791;28;20203;-71
2022/04/05 01:52:00;;;;;;;1.43;1.33;;;;;;;;;;4955853;28;20248;-71
2022/04/05 01:54:27;;;;;;;3.37;1.77;;;;;;;;;;4955565;28;20213;-71
2022/04/05 01:56:55;;;;;;;3.07;2.10;;;;;;;;;;4973377;28;20226;-72
2022/04/05 01:59:25;;;;;;;12.70;1.70;;;;;;;;;;4963221;28;20619;-72
2022/04/05 02:01:53;;;;;;;1.17;1.07;;;;;;;;;;4956113;28;20290;-72
2022/04/05 02:04:20;;;;;;;2.33;1.33;;;;;;;;;;4956648;28;20239;-72
2022/04/05 02:06:48;;;;;;;1.87;1.67;;;;;;;;;;4953811;28;20326;-72
2022/04/05 02:09:16;;;;;;;1.90;1.47;;;;;;;;;;4952901;28;20297;-72
2022/04/05 02:11:44;;;;;;;1.70;1.27;;;;;;;;;;4955977;28;20203;-72
2022/04/05 02:14:12;;;;;;;2.10;1.90;;;;;;;;;;4953605;28;20338;-72
2022/04/05 02:16:41;;;;;;;1.90;1.20;;;;;;;;;;4956180;28;20202;-72
2022/04/05 02:19:09;;;;;;;2.57;1.50;;;;;;;;;;4954272;28;20687;-72
2022/04/05 02:21:36;;;;;;;2.83;1.20;;;;;;;;;;4955585;28;20217;-71
2022/04/05 02:24:04;;;;;;;1.33;1.23;;;;;;;;;;4955279;28;20230;-71
2022/04/05 02:26:31;;;;;;;2.00;1.50;;;;;;;;;;4955904;28;20289;-72
2022/04/05 02:28:59;;;;;;;1.50;1.37;;;;;;;;;;4950156;28;20207;-72
2022/04/05 02:31:26;;;;;;;1.30;0.97;;;;;;;;;;4936615;29;20295;-73
2022/04/05 02:33:55;;;;;;;1.20;1.00;;;;;;;;;;4947796;28;20234;-72
2022/04/05 02:36:23;;;;;;;2.23;1.60;;;;;;;;;;4955017;28;20209;-72
2022/04/05 02:38:50;;;;;;;2.57;0.97;;;;;;;;;;4955760;28;20199;-72
2022/04/05 02:41:17;;;;;;;0.67;0.53;;;;;;;;;;4954903;28;20229;-72
2022/04/05 02:43:45;;;;;;;2.70;1.10;;;;;;;;;;4954464;28;20207;-72
2022/04/05 02:46:13;;;;;;;0.80;0.57;;;;;;;;;;4955083;28;20203;-72
2022/04/05 02:48:43;;;;;;;1.30;1.20;;;;;;;;;;4955337;28;20687;-73
2022/04/05 02:51:13;;;;;;;1.80;1.10;;;;;;;;;;4955568;28;20203;-73
2022/04/05 02:53:41;;;;;;;0.90;0.90;;;;;;;;;;4954349;28;20775;-74
2022/04/05 02:56:09;;;;;;;4.33;1.63;;;;;;;;;;4955440;28;20195;-74
2022/04/05 02:58:36;;;;;;;19.97;2.87;;;;;;;;;;4955269;28;20363;-74
2022/04/05 03:01:04;;;;;;;1.27;0.80;;;;;;;;;;4954429;28;20207;-74
2022/04/05 03:03:32;;;;;;;0.77;0.77;;;;;;;;;;4953981;28;20261;-74
2022/04/05 03:05:59;;;;;;;0.10;0.10;;;;;;;;;;4954455;28;20203;-74
2022/04/05 03:08:28;;;;;;;1.90;1.70;;;;;;;;;;4955091;28;20206;-73
2022/04/05 03:10:56;;;;;;;3.90;1.40;;;;;;;;;;4954044;28;20670;-73
2022/04/05 03:13:23;;;;;;;0.80;0.53;;;;;;;;;;4953689;28;20235;-73
2022/04/05 03:15:50;;;;;;;1.23;1.03;;;;;;;;;;4954414;28;20547;-72
2022/04/05 03:18:18;;;;;;;0.93;0.93;;;;;;;;;;4955049;28;20203;-72
2022/04/05 03:20:45;;;;;;;2.00;1.30;;;;;;;;;;4954983;28;20676;-73
2022/04/05 03:23:13;;;;;;;0.73;0.60;;;;;;;;;;4953305;28;20203;-73
2022/04/05 03:25:42;;;;;;;1.60;1.50;;;;;;;;;;4954956;28;20195;-72
2022/04/05 03:28:09;;;;;;;0.57;0.57;;;;;;;;;;4954847;28;20676;-73
2022/04/05 03:30:36;;;;;;;1.23;1.13;;;;;;;;;;4953335;28;20210;-73
2022/04/05 03:33:04;;;;;;;0.30;0.30;;;;;;;;;;4952842;28;20226;-72
2022/04/05 03:35:31;;;;;;;4.13;1.90;;;;;;;;;;4954632;28;20309;-72
2022/04/05 03:37:59;;;;;;;1.83;0.77;;;;;;;;;;4954959;28;20254;-72
2022/04/05 03:40:26;;;;;;;0.37;0.30;;;;;;;;;;4953763;28;20199;-72
2022/04/05 03:42:55;;;;;;;0.23;0.23;;;;;;;;;;4953736;28;20669;-71
2022/04/05 03:45:23;;;;;;;3.00;1.57;;;;;;;;;;4954497;28;20210;-72
2022/04/05 03:47:50;;;;;;;0.57;0.57;;;;;;;;;;4954173;28;20290;-72
2022/04/05 03:50:18;;;;;;;0.83;0.83;;;;;;;;;;4954262;28;20195;-72
2022/04/05 03:52:46;;;;;;;1.00;0.90;;;;;;;;;;4953438;28;20240;-71
2022/04/05 03:55:13;;;;;;;0.97;0.97;;;;;;;;;;4954171;28;20203;-72
2022/04/05 03:57:40;;;;;;;1.23;0.93;;;;;;;;;;4952592;28;20322;-71
2022/04/05 04:00:10;;;;;;;0.80;0.80;;;;;;;;;;4953962;28;20199;-72
2022/04/05 04:02:37;;;;;;;1.23;1.20;;;;;;;;;;4952742;28;20210;-72
2022/04/05 04:05:05;;;;;;;1.17;1.13;;;;;;;;;;4954255;28;20568;-72
2022/04/05 04:07:32;;;;;;;2.30;1.83;;;;;;;;;;4954020;28;20249;-71
2022/04/05 04:10:03;;;;;;;1.63;1.30;;;;;;;;;;4954155;28;20198;-73
2022/04/05 04:12:31;;;;;;;1.13;0.90;;;;;;;;;;4953341;28;20206;-71
2022/04/05 04:14:59;;;;;;;2.20;1.57;;;;;;;;;;4953725;29;20250;-72
2022/04/05 04:17:28;;;;;;;12.57;1.27;;;;;;;;;;4953795;28;20203;-72
2022/04/05 04:19:55;;;;;;;0.77;0.77;;;;;;;;;;4953634;28;20711;-72
2022/04/05 04:22:22;;;;;;;4.27;1.23;;;;;;;;;;4953656;28;20210;-71
2022/04/05 04:24:50;;;;;;;0.50;0.47;;;;;;;;;;4952323;28;20209;-72
2022/04/05 04:27:17;;;;;;;3.40;1.40;;;;;;;;;;4934744;29;20203;-72
2022/04/05 04:29:44;;;;;;;0.67;0.63;;;;;;;;;;4945671;29;20566;-72
2022/04/05 04:32:12;;;;;;;1.90;0.93;;;;;;;;;;4953875;28;20210;-72
2022/04/05 04:34:41;;;;;;;6.27;1.30;;;;;;;;;;4953162;28;20230;-72
2022/04/05 04:37:08;;;;;;;1.30;1.20;;;;;;;;;;4953785;28;20202;-72
2022/04/05 04:39:37;;;;;;;1.40;0.70;;;;;;;;;;4953768;28;20199;-71
2022/04/05 04:42:05;;;;;;;1.20;1.20;;;;;;;;;;4952456;28;20297;-72
2022/04/05 04:44:32;;;;;;;1.50;1.13;;;;;;;;;;4952885;28;20218;-71
2022/04/05 04:46:59;;;;;;;0.73;0.70;;;;;;;;;;4952903;28;20661;-71
2022/04/05 04:49:27;;;;;;;0.47;0.47;;;;;;;;;;4953552;28;20207;-71
2022/04/05 04:51:56;;;;;;;2.00;1.07;;;;;;;;;;4952534;28;20210;-71
2022/04/05 04:54:23;;;;;;;0.27;0.27;;;;;;;;;;4952656;28;20243;-71
2022/04/05 04:56:50;;;;;;;2.40;1.40;;;;;;;;;;4953401;28;20203;-71
2022/04/05 04:59:17;;;;;;;1.37;0.90;;;;;;;;;;4953358;28;20203;-71
2022/04/05 05:01:45;;;;;;;0.60;0.60;;;;;;;;;;4951255;28;20611;-71
2022/04/05 05:04:12;;;;;;;0.43;0.43;;;;;;;;;;4953518;28;20600;-71
2022/04/05 05:06:40;;;;;;;0.70;0.57;;;;;;;;;;4953255;28;20238;-71
2022/04/05 05:09:09;;;;;;;1.87;0.67;;;;;;;;;;4953337;28;20203;-71
2022/04/05 05:11:37;;;;;;;1.30;0.37;;;;;;;;;;4951461;28;20570;-72
2022/04/05 05:14:04;;;;;;;1.70;1.13;;;;;;;;;;4955915;28;20237;-71
2022/04/05 05:16:33;;;;;;;0.30;0.30;;;;;;;;;;4957231;28;20209;-72
2022/04/05 05:19:01;;;;;;;0.60;0.60;;;;;;;;;;4956260;28;21075;-71
2022/04/05 05:21:28;;;;;;;1.17;0.67;;;;;;;;;;4954668;28;20202;-71
2022/04/05 05:23:55;;;;;;;1.63;1.33;;;;;;;;;;4956758;28;20665;-72
2022/04/05 05:26:25;;;;;;;0.97;0.90;;;;;;;;;;4956926;28;20415;-71
2022/04/05 05:28:52;;;;;;;0.37;0.37;;;;;;;;;;4952648;28;20610;-71
2022/04/05 05:31:20;;;;;;;0.90;0.67;;;;;;;;;;4945410;28;20202;-72
2022/04/05 05:33:47;;;;;;;1.93;1.00;;;;;;;;;;4956155;28;20227;-72
2022/04/05 05:36:14;;;;;;;2.10;1.00;;;;;;;;;;4956801;28;20661;-72
2022/04/05 05:38:42;;;;;;;0.20;0.20;;;;;;;;;;4956664;28;20213;-72
2022/04/05 05:41:09;;;;;;;0.63;0.63;;;;;;;;;;4955234;28;20203;-72
2022/04/05 05:43:38;;;;;;;5.90;1.30;;;;;;;;;;4956500;28;20199;-71
2022/04/05 05:46:06;;;;;;;1.50;1.50;;;;;;;;;;4956774;28;20203;-72
2022/04/05 05:48:34;;;;;;;4.53;1.77;;;;;;;;;;4956140;28;20203;-72
2022/04/05 05:51:01;;;;;;;0.80;0.63;;;;;;;;;;4954201;28;20217;-71
2022/04/05 05:53:29;;;;;;;1.07;0.97;;;;;;;;;;4956547;28;20230;-71
2022/04/05 05:55:56;;;;;;;3.17;0.90;;;;;;;;;;4954101;28;20286;-71
2022/04/05 05:58:23;;;;;;;1.73;1.30;;;;;;;;;;4956546;28;20213;-71
2022/04/05 06:00:53;;;;;;;0.40;0.40;;;;;;;;;;4955547;28;20205;-71
2022/04/05 06:03:20;;;;;;;1.93;1.50;;;;;;;;;;4956347;28;20332;-71
2022/04/05 06:05:47;;;;;;;1.00;1.00;;;;;;;;;;4955715;28;20214;-71
2022/04/05 06:08:15;;;;;;;0.90;0.87;;;;;;;;;;4956243;28;20235;-71
2022/04/05 06:10:42;;;;;;;1.07;0.97;;;;;;;;;;4955332;28;20660;-71
2022/04/05 06:13:10;;;;;;;1.20;1.10;;;;;;;;;;4956219;28;20210;-71
2022/04/05 06:15:37;;;;;;;2.43;1.57;;;;;;;;;;4954406;28;20203;-71
2022/04/05 06:18:06;;;;;;;0.40;0.40;;;;;;;;;;4955969;28;20199;-72
2022/04/05 06:20:33;;;;;;;1.97;1.33;;;;;;;;;;4955224;28;20199;-72
2022/04/05 06:23:02;;;;;;;4.27;1.50;;;;;;;;;;4955958;28;20222;-71
2022/04/05 06:25:30;;;;;;;0.67;0.67;;;;;;;;;;4954825;28;20660;-71
2022/04/05 06:27:58;;;;;;;0.37;0.37;;;;;;;;;;4955500;29;20214;-71
2022/04/05 06:30:25;;;;;;;0.50;0.50;;;;;;;;;;4950879;28;20203;-71
2022/04/05 06:32:52;;;;;;;0.30;0.30;;;;;;;;;;4956026;28;20294;-72
2022/04/05 06:35:23;;;;;;;0.63;0.63;;;;;;;;;;4955768;28;20726;-70
2022/04/05 06:37:51;;;;;;;0.47;0.47;;;;;;;;;;4954678;28;20299;-71
2022/04/05 06:40:18;;;;;;;4.07;2.03;;;;;;;;;;4954151;28;20290;-71
2022/04/05 06:42:46;;;;;;;0.70;0.53;;;;;;;;;;4955413;28;20201;-72
2022/04/05 06:45:15;;;;;;;1.07;0.53;;;;;;;;;;4955024;29;20605;-72
2022/04/05 06:47:42;;;;;;;1.50;1.10;;;;;;;;;;4953543;28;20311;-72
2022/04/05 06:50:10;;;;;;;0.23;0.23;;;;;;;;;;4955034;28;20202;-72
2022/04/05 06:52:40;;;;;;;4.50;1.40;;;;;;;;;;4955580;28;20579;-72
2022/04/05 06:55:07;;;;;;;0.33;0.33;;;;;;;;;;4955438;28;20610;-72
2022/04/05 06:57:35;;;;;;;1.47;1.37;;;;;;;;;;4952897;28;20203;-71
2022/04/05 07:00:02;;;;;;;0.90;0.90;;;;;;;;;;4953747;28;20206;-71
2022/04/05 07:02:30;;;;;;;2.07;1.87;;;;;;;;;;4955946;28;20195;-71
2022/04/05 07:04:57;;;;;;;2.67;1.43;;;;;;;;;;4955610;28;20199;-71
2022/04/05 07:07:24;;;;;;;1.67;1.57;;;;;;;;;;4953836;28;20616;-72
2022/04/05 07:09:53;;;;;;;2.60;1.83;;;;;;;;;;4953943;28;20203;-72
2022/04/05 07:12:20;;;;;;;3.57;1.73;;;;;;;;;;4955049;28;20236;-72
2022/04/05 07:14:48;;;;;;;1.50;1.00;;;;;;;;;;4955088;28;20712;-72
2022/04/05 07:17:15;;;;;;;1.50;1.40;;;;;;;;;;4952744;28;20202;-72
2022/04/05 07:19:43;;;;;;;2.07;0.80;;;;;;;;;;4953785;28;20214;-72
2022/04/05 07:22:10;;;;;;;1.20;0.83;;;;;;;;;;4955103;28;20203;-72
2022/04/05 07:24:38;;;;;;;1.87;1.57;;;;;;;;;;4953974;28;20842;-72
2022/04/05 07:27:07;;;;;;;3.63;1.50;;;;;;;;;;4953914;28;20218;-75
2022/04/05 07:29:34;;;;;;;1.43;1.03;;;;;;;;;;4952914;28;20214;-75
2022/04/05 07:32:02;;;;;;;1.50;1.17;;;;;;;;;;4952179;28;20790;-71
2022/04/05 07:34:29;;;;;;;1.07;0.93;;;;;;;;;;4954517;28;20311;-71
2022/04/05 07:36:57;;;;;;;1.07;0.97;;;;;;;;;;4952220;28;20203;-72
2022/04/05 07:39:24;;;;;;;1.97;1.60;;;;;;;;;;4952721;28;20207;-71
2022/04/05 07:41:52;;;;;;;2.47;1.07;;;;;;;;;;4954424;28;20297;-71
2022/04/05 07:44:22;;;;;;;0.50;0.50;;;;;;;;;;4954577;28;20203;-71
2022/04/05 07:46:49;;;;;;;2.47;1.70;;;;;;;;;;4952858;28;20764;-71
2022/04/05 07:49:17;;;;;;;2.10;1.13;;;;;;;;;;4953553;28;20207;-71
2022/04/05 07:51:45;;;;;;;3.93;1.53;;;;;;;;;;4953248;28;20203;-71
2022/04/05 07:54:12;;;;;;;1.53;0.93;;;;;;;;;;4954064;28;20226;-71
2022/04/05 07:56:39;;;;;;;1.27;1.10;;;;;;;;;;4953550;28;20195;-73
2022/04/05 07:59:07;;;;;;;2.07;1.30;;;;;;;;;;4954805;28;20199;-72
2022/04/05 08:01:35;;;;;;;1.00;1.00;;;;;;;;;;4953181;28;20213;-70
2022/04/05 08:04:03;;;;;;;3.77;1.67;;;;;;;;;;4954148;28;20210;-72
2022/04/05 08:06:31;;;;;;;1.50;0.90;;;;;;;;;;4950714;28;20245;-71
2022/04/05 08:09:00;;;;;;;7.30;1.57;;;;;;;;;;4953030;28;20207;-71
2022/04/05 08:11:28;;;;;;;1.37;1.27;;;;;;;;;;4954252;28;20266;-71
2022/04/05 08:13:56;;;;;;;1.40;1.30;;;;;;;;;;4953803;28;20739;-71
2022/04/05 08:16:24;;;;;;;2.67;1.30;;;;;;;;;;4953042;28;20199;-71
2022/04/05 08:18:53;;;;;;;5.70;1.27;;;;;;;;;;4953059;28;20698;-70
2022/04/05 08:21:20;;;;;;;4.77;1.93;;;;;;;;;;4954227;28;20253;-70
2022/04/05 08:23:50;;;;;;;4.67;1.43;;;;;;;;;;4953791;28;20203;-71
2022/04/05 08:26:18;;;;;;;3.03;1.97;;;;;;;;;;4953740;28;20199;-71
2022/04/05 08:28:45;;;;;;;1.83;1.60;;;;;;;;;;4952775;28;20203;-70
2022/04/05 08:31:12;;;;;;;1.30;1.20;;;;;;;;;;4953696;28;20579;-70
2022/04/05 08:33:40;;;;;;;1.70;1.27;;;;;;;;;;4952134;28;20537;-71
2022/04/05 08:36:09;;;;;;;2.30;1.30;;;;;;;;;;4953988;28;20199;-71
2022/04/05 08:38:37;;;;;;;4.20;2.53;;;;;;;;;;4952181;28;20203;-73
2022/04/05 08:41:06;;;;;;;4.93;2.07;;;;;;;;;;4952233;28;20687;-75
2022/04/05 08:43:34;;;;;;;2.30;1.27;;;;;;;;;;4949186;28;20202;-71
2022/04/05 08:46:03;;;;;;;3.70;1.33;;;;;;;;;;4944497;28;20218;-73
2022/04/05 08:48:31;;;;;;;2.83;1.10;;;;;;;;;;4946672;28;20219;-70
2022/04/05 08:50:59;;;;;;;1.40;1.30;;;;;;;;;;4940374;28;20210;-80
2022/04/05 08:53:29;;;;;;;13.80;2.00;;;;;;;;;;4946167;28;20196;-75
2022/04/05 08:55:56;;;;;;;0.93;0.90;;;;;;;;;;4941533;28;20282;-73
2022/04/05 08:58:23;;;;;;;2.00;1.27;;;;;;;;;;4943261;28;20199;-71
2022/04/05 09:00:53;;;;;;;5.13;2.17;;;;;;;;;;4942373;28;20289;-72
2022/04/05 09:03:20;;;;;;;1.07;0.90;;;;;;;;;;4946423;29;20302;-72
2022/04/05 09:05:47;;;;;;;1.57;1.47;;;;;;;;;;4941358;29;20239;-75
2022/04/05 09:08:17;;;;;;;1.90;1.37;;;;;;;;;;4943031;28;20231;-76
2022/04/05 09:10:47;;;;;;;1.70;1.60;;;;;;;;;;4941623;28;20230;-75
2022/04/05 09:13:17;;;;;;;2.67;1.87;;;;;;;;;;4939340;28;20724;-72
2022/04/05 09:15:48;;;;;;;0.73;0.73;;;;;;;;;;4942184;28;20602;-72
2022/04/05 09:18:15;;;;;;;1.77;1.13;;;;;;;;;;4942318;28;20207;-75
2022/04/05 09:20:47;;;;;;;2.60;1.53;;;;;;;;;;4943099;28;20207;-77
2022/04/05 09:23:23;;;;;;;3.90;1.60;;;;;;;;;;4939853;28;20207;-71
2022/04/05 09:25:57;;;;;;;4.20;1.80;;;;;;;;;;4942354;29;20234;-72
2022/04/05 09:28:32;;;;;;;6.50;2.00;;;;;;;;;;4941429;28;20282;-75
2022/04/05 09:31:00;;;;;;;2.93;1.77;;;;;;;;;;4942615;28;20207;-71
2022/04/05 09:33:30;;;;;;;1.27;1.20;;;;;;;;;;4941810;28;20225;-74
2022/04/05 09:36:07;;;;;;;1.80;1.37;;;;;;;;;;4943202;29;20642;-71
2022/04/05 09:38:34;;;;;;;4.33;1.80;;;;;;;;;;4942029;29;20242;-70
2022/04/05 09:41:12;;;;;;;0.80;0.47;;;;;;;;;;4942374;28;20218;-71
2022/04/05 09:43:39;;;;;;;2.00;1.63;;;;;;;;;;4940819;28;20204;-71
2022/04/05 09:46:06;;;;;;;4.17;2.00;;;;;;;;;;4941636;29;20558;-71
2022/04/05 09:48:35;;;;;;;3.33;1.80;;;;;;;;;;4942343;28;20211;-71
2022/04/05 09:51:05;;;;;;;2.20;1.57;;;;;;;;;;4942247;28;20200;-71
2022/04/05 09:53:43;;;;;;;2.17;1.90;;;;;;;;;;4941420;28;20569;-71
2022/04/05 09:56:12;;;;;;;1.17;1.07;;;;;;;;;;4941561;28;20595;-72
2022/04/05 09:58:45;;;;;;;2.87;1.33;;;;;;;;;;4941988;28;20211;-71
2022/04/05 10:01:12;;;;;;;1.40;1.30;;;;;;;;;;4945513;28;20199;-71
2022/04/05 10:03:40;;;;;;;0.93;0.93;;;;;;;;;;4943240;28;20667;-69
2022/04/05 10:06:08;;;;;;;1.87;1.20;;;;;;;;;;4943959;28;20215;-70
2022/04/05 10:08:36;;;;;;;1.67;1.10;;;;;;;;;;4947091;29;20234;-70
2022/04/05 10:11:04;;;;;;;2.63;1.57;;;;;;;;;;4945887;28;20208;-71
2022/04/05 10:13:33;;;;;;;3.50;1.80;;;;;;;;;;4944525;28;20560;-70
2022/04/05 10:16:02;;;;;;;4.33;2.37;;;;;;;;;;4945393;29;20243;-71
2022/04/05 10:18:36;;;;;;;0.87;0.70;;;;;;;;;;4943397;28;20218;-72
2022/04/05 10:21:04;;;;;;;3.80;1.63;;;;;;;;;;4944989;28;20272;-72
2022/04/05 10:23:32;;;;;;;1.93;1.40;;;;;;;;;;4946025;28;20203;-72
2022/04/05 10:26:00;;;;;;;2.60;1.30;;;;;;;;;;4944745;28;20215;-71
2022/04/05 10:28:30;;;;;;;1.80;1.50;;;;;;;;;;4946773;28;20209;-72
2022/04/05 10:31:02;;;;;;;3.27;1.70;;;;;;;;;;4944782;28;20211;-71
2022/04/05 10:33:35;;;;;;;6.00;1.83;;;;;;;;;;4945595;28;20221;-71
2022/04/05 10:36:03;;;;;;;4.57;2.20;;;;;;;;;;4944108;29;22837;-71
2022/04/05 10:38:30;;;;;;;1.83;1.30;;;;;;;;;;4944708;28;20225;-71
2022/04/05 10:41:18;;;;;;;1.37;1.13;;;;;;;;;;4945779;28;20219;-71
2022/04/05 10:43:46;;;;;;;2.00;1.27;;;;;;;;;;4945053;29;20306;-71
2022/04/05 10:46:15;;;;;;;1.73;1.63;;;;;;;;;;4944532;29;20203;-72
2022/04/05 10:48:56;;;;;;;1.50;1.27;;;;;;;;;;4945195;29;20219;-71
2022/04/05 10:51:33;;;;;;;1.43;1.33;;;;;;;;;;4943556;28;20209;-72
2022/04/05 10:54:20;;;;;;;2.63;1.77;;;;;;;;;;4945677;29;20207;-72
2022/04/05 10:57:06;;;;;;;3.17;2.03;;;;;;;;;;4943692;29;20746;-73
2022/04/05 10:59:47;;;;;;;5.73;1.80;;;;;;;;;;4942543;28;20218;-74
2022/04/05 11:02:29;;;;;;;2.33;1.60;;;;;;;;;;4942096;28;20207;-74
2022/04/05 11:05:03;;;;;;;3.27;0.67;;;;;;;;;;4942286;28;20211;-75
2022/04/05 11:07:31;;;;;;;2.23;1.57;;;;;;;;;;4945886;28;20223;-76
2022/04/05 11:10:00;;;;;;;1.60;1.03;;;;;;;;;;4943911;28;20743;-75
2022/04/05 11:12:30;;;;;;;5.77;2.40;;;;;;;;;;4944945;28;20245;-74
2022/04/05 11:14:58;;;;;;;1.30;1.20;;;;;;;;;;4944660;28;20231;-75
2022/04/05 11:17:28;;;;;;;1.40;1.30;;;;;;;;;;4946961;28;20226;-74
2022/04/05 11:19:57;;;;;;;2.63;1.27;;;;;;;;;;4944408;28;20199;-71
2022/04/05 11:22:31;;;;;;;1.63;1.10;;;;;;;;;;4945740;29;20195;-78
2022/04/05 11:25:00;;;;;;;2.00;1.90;;;;;;;;;;4945740;29;21391;-74
2022/04/05 11:27:29;;;;;;;1.40;1.03;;;;;;;;;;4943098;28;20624;-72
2022/04/05 11:30:15;;;;;;;4.63;2.00;;;;;;;;;;4949994;28;20243;-72
2022/04/05 11:32:57;;;;;;;0.33;0.33;;;;;;;;;;4944641;29;20211;-72
2022/04/05 11:35:27;;;;;;;1.33;1.23;;;;;;;;;;4944804;29;20400;-72
2022/04/05 11:37:56;;;;;;;2.30;1.40;;;;;;;;;;4944434;28;20561;-71
2022/04/05 11:40:24;;;;;;;2.73;1.00;;;;;;;;;;4945674;28;20250;-71
2022/04/05 11:42:51;;;;;;;2.57;0.90;;;;;;;;;;4947731;28;20724;-72
2022/04/05 11:45:19;;;;;;;2.83;1.63;;;;;;;;;;4950626;28;20195;-72
2022/04/05 11:47:53;;;;;;;0.70;0.70;;;;;;;;;;4942600;28;20582;-72
2022/04/05 11:50:20;;;;;;;1.63;1.17;;;;;;;;;;4944700;28;20199;-71
2022/04/05 11:52:48;;;;;;;0.93;0.73;;;;;;;;;;4946204;28;20687;-71
2022/04/05 11:58:05;;;;;;;3.73;2.33;;;;;;;;;;4944215;28;20214;-70
2022/04/05 12:00:33;;;;;;;1.73;1.60;;;;;;;;;;4943750;29;20222;-70
2022/04/05 12:03:05;;;;;;;3.77;1.50;;;;;;;;;;4946823;28;20222;-71
2022/04/05 12:05:43;;;;;;;0.93;0.93;;;;;;;;;;4942788;28;20324;-70
2022/04/05 12:08:11;;;;;;;2.70;2.30;;;;;;;;;;4944152;28;20241;-71
2022/04/05 12:10:42;;;;;;;5.27;2.90;;;;;;;;;;4945869;28;20207;-70
2022/04/05 12:13:10;;;;;;;2.40;1.90;;;;;;;;;;4945503;28;20207;-70
2022/04/05 12:15:38;;;;;;;4.97;1.60;;;;;;;;;;4952471;28;20226;-71
2022/04/05 12:18:18;;;;;;;2.63;2.43;;;;;;;;;;4943259;28;20207;-71
2022/04/05 12:20:55;;;;;;;2.70;1.67;;;;;;;;;;4945051;28;20212;-70
2022/04/05 12:23:24;;;;;;;3.03;1.87;;;;;;;;;;4947607;28;20690;-71
2022/04/05 12:26:06;;;;;;;3.07;2.30;;;;;;;;;;4958009;28;20569;-70
2022/04/05 12:28:34;;;;;;;2.40;2.10;;;;;;;;;;4947365;28;20209;-70
2022/04/05 12:31:08;;;;;;;2.30;1.83;;;;;;;;;;4945223;29;20212;-71
2022/04/05 12:33:36;;;;;;;2.33;2.13;;;;;;;;;;4939149;28;20226;-71
2022/04/05 12:36:03;;;;;;;2.90;1.70;;;;;;;;;;4945630;28;20333;-70
2022/04/05 12:38:31;;;;;;;11.43;1.77;;;;;;;;;;4941402;28;20210;-70
2022/04/05 12:40:59;;;;;;;2.70;2.47;;;;;;;;;;4941521;28;20217;-71
2022/04/05 12:43:27;;;;;;;1.90;1.70;;;;;;;;;;4945941;29;20203;-70
2022/04/05 12:45:55;;;;;;;3.83;2.47;;;;;;;;;;4944014;29;20213;-70
2022/04/05 12:48:23;;;;;;;0.90;0.90;;;;;;;;;;4940804;28;20320;-71
2022/04/05 12:50:51;;;;;;;7.67;2.80;;;;;;;;;;4943139;28;20208;-70
2022/04/05 12:53:26;;;;;;;1.83;1.00;;;;;;;;;;4943575;28;20625;-71
2022/04/05 12:55:57;;;;;;;2.00;1.67;;;;;;;;;;4944171;28;20277;-70
2022/04/05 12:58:37;;;;;;;2.00;1.83;;;;;;;;;;4948778;28;20590;-70
2022/04/05 13:01:15;;;;;;;4.40;3.10;;;;;;;;;;4941088;28;20230;-71
2022/04/05 13:03:43;;;;;;;2.43;2.07;;;;;;;;;;4949053;28;20207;-71
2022/04/05 13:06:20;;;;;;;1.67;1.57;;;;;;;;;;4940345;28;20230;-70
2022/04/05 13:08:49;;;;;;;3.47;2.83;;;;;;;;;;4941058;28;20217;-71
2022/04/05 13:11:25;;;;;;;4.63;2.70;;;;;;;;;;4938740;28;20203;-71
2022/04/05 13:14:01;;;;;;;3.70;2.43;;;;;;;;;;4942242;29;20214;-70
2022/04/05 13:16:29;;;;;;;3.93;2.40;;;;;;;;;;4940192;29;20599;-70
2022/04/05 13:19:07;;;;;;;2.97;2.50;;;;;;;;;;4950445;28;20552;-70
2022/04/05 13:21:42;;;;;;;1.93;1.67;;;;;;;;;;4939899;28;20203;-70
2022/04/05 13:24:10;;;;;;;2.67;1.73;;;;;;;;;;4947607;28;20207;-70
2022/04/05 13:26:40;;;;;;;4.93;2.50;;;;;;;;;;4944850;28;20659;-70
2022/04/05 13:29:10;;;;;;;2.27;1.90;;;;;;;;;;4947874;28;20195;-74
2022/04/05 13:31:42;;;;;;;3.20;1.90;;;;;;;;;;4948413;28;20206;-77
2022/04/05 13:34:10;;;;;;;2.10;1.67;;;;;;;;;;4941644;28;20203;-71
2022/04/05 13:36:37;;;;;;;3.57;2.73;;;;;;;;;;4940967;28;20298;-73
2022/04/05 13:39:05;;;;;;;1.53;1.43;;;;;;;;;;4946712;29;20206;-72
2022/04/05 13:41:33;;;;;;;4.37;2.80;;;;;;;;;;4947063;28;20211;-71
2022/04/05 13:44:01;;;;;;;3.93;2.50;;;;;;;;;;4946476;28;20840;-71
2022/04/05 13:46:34;;;;;;;2.90;2.67;;;;;;;;;;4948023;29;20238;-75
2022/04/05 13:49:02;;;;;;;2.30;1.50;;;;;;;;;;4946540;29;20278;-68
2022/04/05 13:51:30;;;;;;;3.77;3.40;;;;;;;;;;4949410;28;20243;-73
2022/04/05 13:53:57;;;;;;;4.57;2.53;;;;;;;;;;4948969;29;20203;-69
2022/04/05 13:56:24;;;;;;;2.17;2.03;;;;;;;;;;4945049;28;20235;-71
2022/04/05 13:58:52;;;;;;;3.80;2.77;;;;;;;;;;4945535;28;20212;-70
2022/04/05 14:01:19;;;;;;;2.23;1.77;;;;;;;;;;4950343;29;20207;-70
2022/04/05 14:03:48;;;;;;;2.43;2.10;;;;;;;;;;4947927;28;20291;-70
2022/04/05 14:06:15;;;;;;;4.13;2.13;;;;;;;;;;4948313;28;20313;-69
2022/04/05 14:08:43;;;;;;;3.30;2.33;;;;;;;;;;4946093;29;20212;-68
2022/04/05 14:11:11;;;;;;;1.77;1.67;;;;;;;;;;4946281;28;20302;-70
2022/04/05 14:13:38;;;;;;;5.07;3.33;;;;;;;;;;4945349;28;20648;-71
2022/04/05 14:16:08;;;;;;;6.90;3.53;;;;;;;;;;4945811;28;20672;-74
2022/04/05 14:18:36;;;;;;;13.43;2.53;;;;;;;;;;4947528;28;20199;-72
2022/04/05 14:21:05;;;;;;;2.93;2.10;;;;;;;;;;4947793;28;20740;-72
2022/04/05 14:23:33;;;;;;;5.40;2.30;;;;;;;;;;4946144;28;20211;-71
2022/04/05 14:26:00;;;;;;;2.30;2.10;;;;;;;;;;4952908;28;20287;-71
2022/04/05 14:28:28;;;;;;;3.23;2.87;;;;;;;;;;4956391;28;20203;-70
2022/04/05 14:30:56;;;;;;;3.13;2.03;;;;;;;;;;4937923;29;20616;-70
2022/04/05 14:33:23;;;;;;;8.53;4.27;;;;;;;;;;4947963;28;20238;-70
2022/04/05 14:35:51;;;;;;;6.87;3.50;;;;;;;;;;4955501;28;20575;-68
2022/04/05 14:38:20;;;;;;;3.13;2.50;;;;;;;;;;4956145;28;20199;-69
2022/04/05 14:40:48;;;;;;;5.93;3.47;;;;;;;;;;4956057;28;20202;-69
2022/04/05 14:43:16;;;;;;;4.13;2.20;;;;;;;;;;4953800;28;20293;-69
2022/04/05 14:45:43;;;;;;;3.80;2.13;;;;;;;;;;4953816;28;20293;-69
2022/04/05 14:48:11;;;;;;;4.73;2.50;;;;;;;;;;4954903;28;20221;-69
2022/04/05 14:50:39;;;;;;;2.63;1.37;;;;;;;;;;4954905;28;20211;-69
2022/04/05 14:53:06;;;;;;;3.00;2.17;;;;;;;;;;4954189;28;20203;-70
2022/04/05 14:55:36;;;;;;;1.40;1.30;;;;;;;;;;4936589;29;20307;-69